sensor_id;sensor_type;location;lat;lon;timestamp;P1;durP1;ratioP1;P2;durP2;ratioP2
22521;SDS011;11427;51.062;17.044;2022-12-29T00:02:48;4.63;;;3.47;;
22521;SDS011;11427;51.062;17.044;2022-12-29T00:17:50;5.25;;;3.20;;
22521;SDS011;11427;51.062;17.044;2022-12-29T00:32:52;6.22;;;3.58;;
22521;SDS011;11427;51.062;17.044;2022-12-29T00:48:13;5.88;;;3.70;;
22521;SDS011;11427;51.062;17.044;2022-12-29T01:03:15;5.32;;;3.60;;
22521;SDS011;11427;51.062;17.044;2022-12-29T01:18:18;5.47;;;3.28;;
22521;SDS011;11427;51.062;17.044;2022-12-29T01:33:20;4.95;;;3.20;;
22521;SDS011;11427;51.062;17.044;2022-12-29T01:48:22;3.85;;;3.10;;
22521;SDS011;11427;51.062;17.044;2022-12-29T02:03:26;4.97;;;2.30;;
22521;SDS011;11427;51.062;17.044;2022-12-29T02:18:51;3.58;;;2.75;;
22521;SDS011;11427;51.062;17.044;2022-12-29T02:49:26;5.00;;;2.90;;
22521;SDS011;11427;51.062;17.044;2022-12-29T03:20:16;6.85;;;3.10;;
22521;SDS011;11427;51.062;17.044;2022-12-29T03:35:23;4.70;;;2.90;;
22521;SDS011;11427;51.062;17.044;2022-12-29T03:50:28;5.20;;;3.08;;
22521;SDS011;11427;51.062;17.044;2022-12-29T04:05:30;3.72;;;2.75;;
22521;SDS011;11427;51.062;17.044;2022-12-29T04:20:33;5.03;;;3.22;;
22521;SDS011;11427;51.062;17.044;2022-12-29T04:35:53;3.97;;;2.60;;
22521;SDS011;11427;51.062;17.044;2022-12-29T04:50:55;3.95;;;2.70;;
22521;SDS011;11427;51.062;17.044;2022-12-29T05:05:57;5.30;;;3.08;;
22521;SDS011;11427;51.062;17.044;2022-12-29T05:20:59;4.88;;;3.65;;
22521;SDS011;11427;51.062;17.044;2022-12-29T05:36:05;5.28;;;3.50;;
22521;SDS011;11427;51.062;17.044;2022-12-29T05:51:08;7.22;;;4.18;;
22521;SDS011;11427;51.062;17.044;2022-12-29T06:06:10;6.68;;;3.90;;
22521;SDS011;11427;51.062;17.044;2022-12-29T06:21:12;5.55;;;3.90;;
22521;SDS011;11427;51.062;17.044;2022-12-29T06:36:14;6.20;;;3.75;;
22521;SDS011;11427;51.062;17.044;2022-12-29T06:51:17;9.10;;;4.82;;
22521;SDS011;11427;51.062;17.044;2022-12-29T07:06:19;5.88;;;4.38;;
22521;SDS011;11427;51.062;17.044;2022-12-29T07:21:22;6.00;;;4.55;;
22521;SDS011;11427;51.062;17.044;2022-12-29T07:36:24;7.88;;;5.50;;
22521;SDS011;11427;51.062;17.044;2022-12-29T07:51:34;9.35;;;5.60;;
22521;SDS011;11427;51.062;17.044;2022-12-29T08:06:36;11.00;;;6.47;;
22521;SDS011;11427;51.062;17.044;2022-12-29T08:21:39;6.00;;;4.63;;
22521;SDS011;11427;51.062;17.044;2022-12-29T08:36:41;7.72;;;6.15;;
22521;SDS011;11427;51.062;17.044;2022-12-29T08:51:43;10.48;;;6.60;;
22521;SDS011;11427;51.062;17.044;2022-12-29T09:06:45;9.48;;;5.57;;
22521;SDS011;11427;51.062;17.044;2022-12-29T09:21:47;7.68;;;5.05;;
22521;SDS011;11427;51.062;17.044;2022-12-29T09:36:49;9.35;;;5.82;;
22521;SDS011;11427;51.062;17.044;2022-12-29T09:51:53;8.30;;;5.50;;
22521;SDS011;11427;51.062;17.044;2022-12-29T10:07:01;10.00;;;5.20;;
22521;SDS011;11427;51.062;17.044;2022-12-29T10:53:18;4.38;;;3.00;;
22521;SDS011;11427;51.062;17.044;2022-12-29T11:08:25;4.03;;;3.17;;
22521;SDS011;11427;51.062;17.044;2022-12-29T11:23:33;7.15;;;3.67;;
22521;SDS011;11427;51.062;17.044;2022-12-29T11:38:41;6.13;;;4.10;;
22521;SDS011;11427;51.062;17.044;2022-12-29T11:53:55;4.95;;;3.53;;
22521;SDS011;11427;51.062;17.044;2022-12-29T12:09:06;9.20;;;4.40;;
22521;SDS011;11427;51.062;17.044;2022-12-29T12:24:37;7.75;;;4.72;;
22521;SDS011;11427;51.062;17.044;2022-12-29T13:26:02;5.55;;;3.20;;
22521;SDS011;11427;51.062;17.044;2022-12-29T13:41:01;7.60;;;3.90;;
22521;SDS011;11427;51.062;17.044;2022-12-29T13:56:15;5.35;;;3.65;;
22521;SDS011;11427;51.062;17.044;2022-12-29T14:26:37;9.82;;;7.22;;
22521;SDS011;11427;51.062;17.044;2022-12-29T14:41:39;10.00;;;7.40;;
22521;SDS011;11427;51.062;17.044;2022-12-29T14:56:41;13.80;;;8.43;;
22521;SDS011;11427;51.062;17.044;2022-12-29T15:11:47;15.23;;;9.73;;
22521;SDS011;11427;51.062;17.044;2022-12-29T15:26:53;15.50;;;9.77;;
22521;SDS011;11427;51.062;17.044;2022-12-29T15:57:09;16.73;;;10.57;;
22521;SDS011;11427;51.062;17.044;2022-12-29T16:12:33;18.85;;;11.50;;
22521;SDS011;11427;51.062;17.044;2022-12-29T16:27:38;19.30;;;11.25;;
22521;SDS011;11427;51.062;17.044;2022-12-29T17:12:54;17.60;;;11.23;;
22521;SDS011;11427;51.062;17.044;2022-12-29T17:28:04;16.45;;;11.57;;
22521;SDS011;11427;51.062;17.044;2022-12-29T17:43:13;16.33;;;10.95;;
22521;SDS011;11427;51.062;17.044;2022-12-29T17:58:17;16.70;;;11.43;;
22521;SDS011;11427;51.062;17.044;2022-12-29T18:13:25;19.63;;;11.65;;
22521;SDS011;11427;51.062;17.044;2022-12-29T18:28:45;16.77;;;11.75;;
22521;SDS011;11427;51.062;17.044;2022-12-29T18:43:49;18.77;;;12.00;;
22521;SDS011;11427;51.062;17.044;2022-12-29T18:58:52;16.88;;;12.00;;
22521;SDS011;11427;51.062;17.044;2022-12-29T19:13:54;19.83;;;13.57;;
22521;SDS011;11427;51.062;17.044;2022-12-29T19:28:56;21.90;;;13.65;;
22521;SDS011;11427;51.062;17.044;2022-12-29T19:43:58;20.88;;;13.32;;
22521;SDS011;11427;51.062;17.044;2022-12-29T19:59:01;20.50;;;13.82;;
22521;SDS011;11427;51.062;17.044;2022-12-29T20:14:03;20.00;;;12.95;;
22521;SDS011;11427;51.062;17.044;2022-12-29T20:29:05;20.00;;;12.85;;
22521;SDS011;11427;51.062;17.044;2022-12-29T20:44:07;20.13;;;13.48;;
22521;SDS011;11427;51.062;17.044;2022-12-29T20:59:09;21.85;;;13.65;;
22521;SDS011;11427;51.062;17.044;2022-12-29T21:14:28;18.13;;;12.18;;
22521;SDS011;11427;51.062;17.044;2022-12-29T21:29:30;22.52;;;13.80;;
22521;SDS011;11427;51.062;17.044;2022-12-29T21:44:32;22.98;;;14.20;;
22521;SDS011;11427;51.062;17.044;2022-12-29T21:59:52;23.30;;;14.35;;
22521;SDS011;11427;51.062;17.044;2022-12-29T22:15:13;19.02;;;13.10;;
22521;SDS011;11427;51.062;17.044;2022-12-29T22:30:15;21.95;;;14.27;;
22521;SDS011;11427;51.062;17.044;2022-12-29T22:45:18;21.45;;;13.98;;
22521;SDS011;11427;51.062;17.044;2022-12-29T23:00:20;16.13;;;11.07;;
22521;SDS011;11427;51.062;17.044;2022-12-29T23:15:21;20.05;;;12.52;;
22521;SDS011;11427;51.062;17.044;2022-12-29T23:30:23;15.98;;;10.52;;
22521;SDS011;11427;51.062;17.044;2022-12-29T23:45:25;15.18;;;9.75;;
